メインページ
METAR-TAF:

METAR-TAF

空港 :

Prince George, ブリティッシュコロンビア州, カナダ

緯度: 53-53N, 経度: 122-41W, 海抜: 691m

現時点の気象観測

当レポートは23分前の18:00(UTC)に作成
の風 17kt、最大23ktの突風を伴う
気温 6°C
湿度 87%
気圧 1003 hPa
視程: 14.5km
高度7500ftの千切れ雲あり
高度8400ftの千切れ雲あり

METAR: CYXS 171800Z AUTO 19017G23KT 9SM BKN075 BKN084 06/04 A2961 RMK SLP049

時間: 10:23 (18:23 UTC)

予報

当レポートは5時間45分前の12:38(UTC)に作成
予報は17日の 13時(UTC)から 18日の 01時(UTC)まで有効
の風 15kt、最大25ktの突風を伴う
視程: 10km
高度7000ftの雲は散在している
高度10000ftの千切れ雲あり
17日の 20時(UTC)から 18日の 01時(UTC)まで一時的に
視程: 10km
高度5000ftの雲は散在している
高度7000ftの千切れ雲あり
弱いにわか雨

TAF: CYXS 171238Z 1713/1801 19015G25KT P6SM SCT070 BKN100 TEMPO 1720/1801 P6SM -SHRA SCT050 BKN070 RMK FCST BASED ON AUTO OBS. NXT FCST BY 171900Z

4,000以上の空港の気象観測と天気予報(METAR報とTAF報)

利用可能な観測所は地図上に黄色い丸と赤い丸で示す。

丸の上にカーソルを重ねると観測所名を参照できる。

次にクリックすると気象観測と天気予報を参照できる。

マップの切り替え:黒色「×」印の緑ボタンをクリックして拡大、「-」印の緑ボタンをクリックして縮小、緑色の三角印をクリックして隣りの地図に切り替え


METAR-TAF: